الصفحة الرئيسية
METAR-TAF:

METAR-TAF

مطار :

مطار تونس قرطاج الدولي

تونس, تونس

دائرة عرض: 36-50N, خط طول: 010-14E, ارتفاع: 3 متر

مراقبة الطقس الحالي

تاريخ ووقت الإصدار 12 دقيقة قبل الساعة 01:00UTC
رياح هادئة
درجة الحرارة 25°درجة مئوية
الرطوبة 74%
ضغط 1014 hPa
الرؤية 10 كم أو أكثر
غيوم قليلة على ارتفاع 2600 قدم

METAR: DTTA 170100Z 00000KT 9999 FEW026 25/20 Q1014 NOSIG

زمن: 02:12 (01:12 UTC)

توقعات

تاريخ ووقت الإصدار 2ساعات و 12 دقيقة قبل الساعة 23:00UTC
التوقعات صالحة من17 الساعة 00 UTC إلى 17 الساعة 24 UTC
ريح 3 عقدة من الغرب/الجنوب الغربي
الرؤية 10 كم أو أكثر
غيوم قليلة على ارتفاع 2600 قدم
نظرية الاحتمالات 30% :
مؤقت
من 17 الساعة 14 UTC إلى 17 الساعة 20 UTC
ريح 20 عقدةمن اتجاهات متغيرة تتزايد حتى 30 عقدة
الرؤية: 4000 متر
غيوم قليلة على ارتفاع 3000 قدم, مزنة ركامية.
عاصفة رعدية, مطر

TAF: DTTA 162300Z 1700/1724 25003KT 9999 FEW026 PROB30 TEMPO 1714/1720 VRB20G30KT 4000 TS RA FEW030CB

أرصاد الطقس والتوقعات من أكثر من 4000 مطار (تقارير الطقس للمطار METAR والتنبؤ بالطقس بالمطارTAF).

المحطات المتاحة هي النقط الصفراء والحمراء على الخريطة.

حرك المؤشر فوق النقطة لمعرفة اسم المحطة.

ثم انقر لمعرفة أرصاد وتوقعات الطقس.

لتغيير الخارطة: اضغط على الأزرار الخضراء مع رمز الصليب الأسود للتكبير. على الزر الأخضر مع شرطة للتصغير، أو على الأسهم الخضراء للخرائط المجاورة.


METAR-TAF: